Announcement

  •  
  • » Requests

Requests

Topic Tags
admin data field size linked albums 0 115 2022-06-25 23:38:13 by JAK
Batch Update description 5 2378 2022-06-06 00:20:02 by railui
  0 364 2022-05-22 22:14:49 by rgischig
Deep Zoom by osobh
Deep Zoom hi-res images ZUI 3 1956 2022-05-19 22:52:41 by Katryne
  1 472 2022-05-01 17:10:07 by MartaW
  0 416 2022-04-28 17:27:52 by AlliVicious
Rewrite Piwigo by myVortexServers
  2 1047 2022-04-18 02:57:20 by Alexander83706
Batch Maps OSM 1 543 2022-04-06 12:23:08 by JamesWood
WordPress 7 2284 2022-03-25 13:26:32 by gueba
categories/albums iOS 2 794 2022-03-21 05:03:49 by jimidmb
Add a New Plugin by kdmiller45
2.2 configuration installation Plugin 1 333 2022-03-19 06:39:29 by ddtddt
configuration users 0 563 2022-03-07 21:24:36 by dlgentle
OpenStreetMap request by JamesWood
OpenStreetMap plugin 0 671 2022-02-24 13:27:00 by JamesWood
error 17 1611 2022-02-12 04:36:13 by hodgman
Family tree by JamesWood
family tree 0 139 2022-02-06 14:38:04 by JamesWood
Batch Album Edit by svenran15
categories/albums 0 227 2022-02-04 10:01:03 by svenran15
  3 1021 2022-02-04 02:40:31 by erAck
  0 205 2022-01-13 17:38:42 by Crythes
Add Index by nobby
  0 216 2022-01-09 15:27:28 by nobby
VideoJS Issues by pbrownll
videojs 6 1955 2021-12-31 17:48:02 by syker69
  2 319 2021-12-27 23:11:41 by erAck
categories/albums configuration edit order sort 0 325 2021-12-27 15:24:42 by jff
categories/albums configuration 1 594 2021-12-25 18:26:03 by arashnejad
  0 367 2021-12-15 13:48:22 by henker
  0 457 2021-11-28 02:33:16 by Alexander83706
user caddy to download by audioscavenger
download users 3 768 2021-11-25 05:41:14 by audioscavenger
configuration core global template 0 358 2021-11-25 02:46:46 by audioscavenger
duplicates exiftool plugin 1 344 2021-11-24 01:15:15 by audioscavenger
Groups and the userid by Alex706
categories/albums configuration Groups Userid 1 514 2021-11-17 13:34:46 by Alexander83706
  1 311 2021-11-16 03:58:24 by phs
error 2 966 2021-11-11 22:30:47 by alb
Missing Translation by Piwigoo
  5 516 2021-11-11 21:15:41 by Piwigoo
configuration installation 3 366 2021-11-07 11:46:54 by erAck
2.2 2 2054 2021-11-06 07:57:23 by Katryne
Sync uploads from Android by eaglegamma
Android sync user upload web upload 1 694 2021-11-05 06:22:10 by eaglegamma
2.1.6 bug error 1 1357 2021-11-04 11:17:19 by erAck
Save/Rollback Configuration by vzafsinrwkppofygpv
configuration 0 267 2021-10-15 19:14:49 by vzafsinrwkppofygpv
11.5 categories/albums 4 391 2021-10-10 22:23:45 by windracer
GEDCOM data by JamesWood
  0 143 2021-10-08 00:46:29 by JamesWood
Heif by executive
  25 9350 2021-10-07 17:21:55 by eliz82
  1 350 2021-09-09 04:18:16 by erw
How to get a look by PhotoKevin
configuration sample sites 1 404 2021-09-02 13:56:52 by homdax
configuration Groups installation users 2 1811 2021-09-01 22:31:25 by Alexander83706
  2 218 2021-08-31 08:11:31 by Katryne
configuration user upload 0 642 2021-08-30 10:41:13 by Alexander83706
Help to set up an image bank by LapplandMedia
configuration installation metadata metadata:exif user upload 0 2454 2021-08-29 11:51:28 by LapplandMedia
  5 669 2021-08-25 13:27:14 by goniand
iOS Panorama Uploads by mb_Wk6uSbc7eeJdtr
configuration error user upload 0 276 2021-08-22 09:24:21 by mb_Wk6uSbc7eeJdtr
  4 1070 2021-08-11 17:06:55 by plg
  0 303 2021-07-27 18:36:49 by jdyer
  •  
  • » Requests

Board footer

Powered by FluxBB

github twitter newsletter Donate Piwigo.org © 2002-2022 · Contact